sensor_id;sensor_type;location;lat;lon;timestamp;P1;durP1;ratioP1;P2;durP2;ratioP2
12467;SDS011;57850;52.922;6.256;2023-07-02T00:01:20;16.13;;;6.93;;
12467;SDS011;57850;52.922;6.256;2023-07-02T00:03:47;13.63;;;6.93;;
12467;SDS011;57850;52.922;6.256;2023-07-02T00:06:13;21.52;;;7.90;;
12467;SDS011;57850;52.922;6.256;2023-07-02T00:08:42;16.42;;;7.53;;
12467;SDS011;57850;52.922;6.256;2023-07-02T00:11:09;16.60;;;7.05;;
12467;SDS011;57850;52.922;6.256;2023-07-02T00:13:38;16.67;;;7.32;;
12467;SDS011;57850;52.922;6.256;2023-07-02T00:16:05;18.85;;;7.50;;
12467;SDS011;57850;52.922;6.256;2023-07-02T00:18:32;17.13;;;7.68;;
12467;SDS011;57850;52.922;6.256;2023-07-02T00:20:59;19.10;;;8.13;;
12467;SDS011;57850;52.922;6.256;2023-07-02T00:23:27;20.05;;;8.30;;
12467;SDS011;57850;52.922;6.256;2023-07-02T00:25:55;18.48;;;8.07;;
12467;SDS011;57850;52.922;6.256;2023-07-02T00:28:22;19.60;;;7.90;;
12467;SDS011;57850;52.922;6.256;2023-07-02T00:30:50;16.42;;;8.38;;
12467;SDS011;57850;52.922;6.256;2023-07-02T00:33:16;21.98;;;8.00;;
12467;SDS011;57850;52.922;6.256;2023-07-02T00:35:43;22.63;;;8.13;;
12467;SDS011;57850;52.922;6.256;2023-07-02T00:38:10;24.15;;;8.35;;
12467;SDS011;57850;52.922;6.256;2023-07-02T00:40:36;24.02;;;8.27;;
12467;SDS011;57850;52.922;6.256;2023-07-02T00:43:03;21.27;;;8.45;;
12467;SDS011;57850;52.922;6.256;2023-07-02T00:45:30;21.67;;;8.77;;
12467;SDS011;57850;52.922;6.256;2023-07-02T00:47:59;20.80;;;7.93;;
12467;SDS011;57850;52.922;6.256;2023-07-02T00:50:26;23.50;;;9.00;;
12467;SDS011;57850;52.922;6.256;2023-07-02T00:52:54;17.65;;;8.35;;
12467;SDS011;57850;52.922;6.256;2023-07-02T00:55:21;22.33;;;8.45;;
12467;SDS011;57850;52.922;6.256;2023-07-02T00:57:48;22.77;;;8.98;;
12467;SDS011;57850;52.922;6.256;2023-07-02T01:00:16;27.10;;;8.82;;
12467;SDS011;57850;52.922;6.256;2023-07-02T01:02:43;15.35;;;8.25;;
12467;SDS011;57850;52.922;6.256;2023-07-02T01:05:26;19.63;;;8.48;;
12467;SDS011;57850;52.922;6.256;2023-07-02T01:08:00;21.05;;;8.30;;
12467;SDS011;57850;52.922;6.256;2023-07-02T01:10:27;19.52;;;7.45;;
12467;SDS011;57850;52.922;6.256;2023-07-02T01:12:56;17.40;;;8.60;;
12467;SDS011;57850;52.922;6.256;2023-07-02T01:15:27;21.85;;;8.18;;
12467;SDS011;57850;52.922;6.256;2023-07-02T01:17:57;16.88;;;7.93;;
12467;SDS011;57850;52.922;6.256;2023-07-02T01:20:27;18.30;;;7.63;;
12467;SDS011;57850;52.922;6.256;2023-07-02T01:22:55;22.73;;;8.27;;
12467;SDS011;57850;52.922;6.256;2023-07-02T01:25:28;19.23;;;7.88;;
12467;SDS011;57850;52.922;6.256;2023-07-02T01:27:56;17.73;;;8.40;;
12467;SDS011;57850;52.922;6.256;2023-07-02T01:30:24;18.25;;;7.65;;
12467;SDS011;57850;52.922;6.256;2023-07-02T01:32:51;23.27;;;8.70;;
12467;SDS011;57850;52.922;6.256;2023-07-02T01:35:18;22.08;;;8.20;;
12467;SDS011;57850;52.922;6.256;2023-07-02T01:37:46;20.65;;;8.55;;
12467;SDS011;57850;52.922;6.256;2023-07-02T01:40:13;25.90;;;9.25;;
12467;SDS011;57850;52.922;6.256;2023-07-02T01:42:40;20.13;;;8.30;;
12467;SDS011;57850;52.922;6.256;2023-07-02T01:45:07;25.45;;;7.65;;
12467;SDS011;57850;52.922;6.256;2023-07-02T01:47:35;21.42;;;8.40;;
12467;SDS011;57850;52.922;6.256;2023-07-02T01:50:02;23.13;;;8.50;;
12467;SDS011;57850;52.922;6.256;2023-07-02T01:52:30;19.73;;;9.07;;
12467;SDS011;57850;52.922;6.256;2023-07-02T01:55:00;18.15;;;8.02;;
12467;SDS011;57850;52.922;6.256;2023-07-02T01:57:27;20.38;;;7.30;;
12467;SDS011;57850;52.922;6.256;2023-07-02T01:59:56;21.00;;;8.93;;
12467;SDS011;57850;52.922;6.256;2023-07-02T02:02:23;19.23;;;8.60;;
12467;SDS011;57850;52.922;6.256;2023-07-02T02:04:50;16.90;;;8.98;;
12467;SDS011;57850;52.922;6.256;2023-07-02T02:07:17;22.00;;;8.60;;
12467;SDS011;57850;52.922;6.256;2023-07-02T02:09:43;21.75;;;8.75;;
12467;SDS011;57850;52.922;6.256;2023-07-02T02:12:11;24.63;;;8.88;;
12467;SDS011;57850;52.922;6.256;2023-07-02T02:14:39;22.60;;;8.73;;
12467;SDS011;57850;52.922;6.256;2023-07-02T02:17:06;28.10;;;9.85;;
12467;SDS011;57850;52.922;6.256;2023-07-02T02:19:32;30.08;;;10.02;;
12467;SDS011;57850;52.922;6.256;2023-07-02T02:21:59;19.23;;;8.25;;
12467;SDS011;57850;52.922;6.256;2023-07-02T02:24:26;26.40;;;9.18;;
12467;SDS011;57850;52.922;6.256;2023-07-02T02:26:52;19.55;;;8.27;;
12467;SDS011;57850;52.922;6.256;2023-07-02T02:29:20;22.23;;;9.27;;
12467;SDS011;57850;52.922;6.256;2023-07-02T02:31:47;21.90;;;8.88;;
12467;SDS011;57850;52.922;6.256;2023-07-02T02:34:14;17.75;;;8.48;;
12467;SDS011;57850;52.922;6.256;2023-07-02T02:36:40;23.63;;;8.45;;
12467;SDS011;57850;52.922;6.256;2023-07-02T02:39:07;19.17;;;8.25;;
12467;SDS011;57850;52.922;6.256;2023-07-02T02:41:33;20.50;;;9.80;;
12467;SDS011;57850;52.922;6.256;2023-07-02T02:44:00;22.77;;;9.07;;
12467;SDS011;57850;52.922;6.256;2023-07-02T02:46:29;26.25;;;10.18;;
12467;SDS011;57850;52.922;6.256;2023-07-02T02:48:59;20.20;;;9.98;;
12467;SDS011;57850;52.922;6.256;2023-07-02T02:51:25;24.63;;;9.52;;
12467;SDS011;57850;52.922;6.256;2023-07-02T02:53:52;23.77;;;8.80;;
12467;SDS011;57850;52.922;6.256;2023-07-02T02:56:19;21.38;;;9.15;;
12467;SDS011;57850;52.922;6.256;2023-07-02T02:58:45;22.55;;;9.20;;
12467;SDS011;57850;52.922;6.256;2023-07-02T03:01:12;25.23;;;9.70;;
12467;SDS011;57850;52.922;6.256;2023-07-02T03:03:41;21.30;;;8.77;;
12467;SDS011;57850;52.922;6.256;2023-07-02T03:06:10;24.50;;;10.00;;
12467;SDS011;57850;52.922;6.256;2023-07-02T03:08:39;25.27;;;9.30;;
12467;SDS011;57850;52.922;6.256;2023-07-02T03:11:05;28.48;;;9.70;;
12467;SDS011;57850;52.922;6.256;2023-07-02T03:13:32;22.73;;;9.80;;
12467;SDS011;57850;52.922;6.256;2023-07-02T03:15:59;25.48;;;9.45;;
12467;SDS011;57850;52.922;6.256;2023-07-02T03:18:25;20.45;;;8.73;;
12467;SDS011;57850;52.922;6.256;2023-07-02T03:20:53;31.08;;;9.90;;
12467;SDS011;57850;52.922;6.256;2023-07-02T03:23:20;27.35;;;9.32;;
12467;SDS011;57850;52.922;6.256;2023-07-02T03:25:47;27.00;;;9.93;;
12467;SDS011;57850;52.922;6.256;2023-07-02T03:28:13;30.38;;;10.23;;
12467;SDS011;57850;52.922;6.256;2023-07-02T03:30:40;25.65;;;8.52;;
12467;SDS011;57850;52.922;6.256;2023-07-02T03:33:07;22.65;;;9.20;;
12467;SDS011;57850;52.922;6.256;2023-07-02T03:35:34;19.55;;;8.93;;
12467;SDS011;57850;52.922;6.256;2023-07-02T03:38:02;21.80;;;8.93;;
12467;SDS011;57850;52.922;6.256;2023-07-02T03:40:29;27.95;;;9.63;;
12467;SDS011;57850;52.922;6.256;2023-07-02T03:42:55;23.48;;;9.02;;
12467;SDS011;57850;52.922;6.256;2023-07-02T03:45:22;24.38;;;9.50;;
12467;SDS011;57850;52.922;6.256;2023-07-02T03:47:49;23.17;;;8.82;;
12467;SDS011;57850;52.922;6.256;2023-07-02T03:50:15;20.85;;;7.90;;
12467;SDS011;57850;52.922;6.256;2023-07-02T03:52:43;22.65;;;9.13;;
12467;SDS011;57850;52.922;6.256;2023-07-02T03:55:11;29.67;;;9.52;;
12467;SDS011;57850;52.922;6.256;2023-07-02T03:57:38;21.70;;;9.07;;
12467;SDS011;57850;52.922;6.256;2023-07-02T04:00:07;22.15;;;8.65;;
12467;SDS011;57850;52.922;6.256;2023-07-02T04:02:36;24.10;;;8.65;;
12467;SDS011;57850;52.922;6.256;2023-07-02T04:05:03;21.98;;;9.05;;
12467;SDS011;57850;52.922;6.256;2023-07-02T04:07:30;24.52;;;9.82;;
12467;SDS011;57850;52.922;6.256;2023-07-02T04:09:56;25.20;;;9.13;;
12467;SDS011;57850;52.922;6.256;2023-07-02T04:12:25;22.75;;;8.85;;
12467;SDS011;57850;52.922;6.256;2023-07-02T04:14:52;22.77;;;9.05;;
12467;SDS011;57850;52.922;6.256;2023-07-02T04:17:18;24.48;;;9.30;;
12467;SDS011;57850;52.922;6.256;2023-07-02T04:19:45;23.50;;;8.80;;
12467;SDS011;57850;52.922;6.256;2023-07-02T04:22:12;28.38;;;9.35;;
12467;SDS011;57850;52.922;6.256;2023-07-02T04:24:38;22.13;;;8.65;;
12467;SDS011;57850;52.922;6.256;2023-07-02T04:27:05;24.98;;;9.05;;
12467;SDS011;57850;52.922;6.256;2023-07-02T04:29:33;23.95;;;8.50;;
12467;SDS011;57850;52.922;6.256;2023-07-02T04:31:59;22.90;;;9.48;;
12467;SDS011;57850;52.922;6.256;2023-07-02T04:34:26;28.42;;;9.63;;
12467;SDS011;57850;52.922;6.256;2023-07-02T04:36:52;24.15;;;9.00;;
12467;SDS011;57850;52.922;6.256;2023-07-02T04:39:19;23.02;;;9.10;;
12467;SDS011;57850;52.922;6.256;2023-07-02T04:41:46;22.23;;;8.88;;
12467;SDS011;57850;52.922;6.256;2023-07-02T04:44:14;24.15;;;8.50;;
12467;SDS011;57850;52.922;6.256;2023-07-02T04:46:42;26.45;;;9.15;;
12467;SDS011;57850;52.922;6.256;2023-07-02T04:49:08;28.70;;;8.75;;
12467;SDS011;57850;52.922;6.256;2023-07-02T04:51:35;21.67;;;9.27;;
12467;SDS011;57850;52.922;6.256;2023-07-02T04:54:01;25.70;;;8.50;;
12467;SDS011;57850;52.922;6.256;2023-07-02T04:56:28;22.00;;;8.80;;
12467;SDS011;57850;52.922;6.256;2023-07-02T04:58:55;25.08;;;9.35;;
12467;SDS011;57850;52.922;6.256;2023-07-02T05:01:21;22.63;;;8.55;;
12467;SDS011;57850;52.922;6.256;2023-07-02T05:03:49;21.45;;;8.90;;
12467;SDS011;57850;52.922;6.256;2023-07-02T05:06:16;24.10;;;7.95;;
12467;SDS011;57850;52.922;6.256;2023-07-02T05:08:42;23.25;;;8.02;;
12467;SDS011;57850;52.922;6.256;2023-07-02T05:11:09;27.23;;;8.43;;
12467;SDS011;57850;52.922;6.256;2023-07-02T05:13:36;22.17;;;8.98;;
12467;SDS011;57850;52.922;6.256;2023-07-02T05:16:02;21.00;;;7.80;;
12467;SDS011;57850;52.922;6.256;2023-07-02T05:18:29;18.05;;;7.50;;
12467;SDS011;57850;52.922;6.256;2023-07-02T05:20:57;21.98;;;8.05;;
12467;SDS011;57850;52.922;6.256;2023-07-02T05:23:25;26.63;;;7.68;;
12467;SDS011;57850;52.922;6.256;2023-07-02T05:25:51;18.48;;;7.32;;
12467;SDS011;57850;52.922;6.256;2023-07-02T05:28:18;19.40;;;6.50;;
12467;SDS011;57850;52.922;6.256;2023-07-02T05:30:44;21.13;;;6.38;;
12467;SDS011;57850;52.922;6.256;2023-07-02T05:33:11;19.70;;;6.50;;
12467;SDS011;57850;52.922;6.256;2023-07-02T05:35:38;16.50;;;6.78;;
12467;SDS011;57850;52.922;6.256;2023-07-02T05:38:06;19.55;;;6.70;;
12467;SDS011;57850;52.922;6.256;2023-07-02T05:40:32;17.35;;;7.30;;
12467;SDS011;57850;52.922;6.256;2023-07-02T05:42:59;22.45;;;6.43;;
12467;SDS011;57850;52.922;6.256;2023-07-02T05:45:25;20.23;;;6.53;;
12467;SDS011;57850;52.922;6.256;2023-07-02T05:47:52;18.38;;;6.90;;
12467;SDS011;57850;52.922;6.256;2023-07-02T05:50:19;18.90;;;7.07;;
12467;SDS011;57850;52.922;6.256;2023-07-02T05:52:45;14.93;;;7.05;;
12467;SDS011;57850;52.922;6.256;2023-07-02T05:55:13;18.38;;;6.85;;
12467;SDS011;57850;52.922;6.256;2023-07-02T05:57:40;17.38;;;6.20;;
12467;SDS011;57850;52.922;6.256;2023-07-02T06:00:07;13.45;;;6.85;;
12467;SDS011;57850;52.922;6.256;2023-07-02T06:02:34;15.85;;;7.15;;
12467;SDS011;57850;52.922;6.256;2023-07-02T06:05:01;19.73;;;7.10;;
12467;SDS011;57850;52.922;6.256;2023-07-02T06:07:27;25.10;;;7.50;;
12467;SDS011;57850;52.922;6.256;2023-07-02T06:09:55;20.92;;;7.10;;
12467;SDS011;57850;52.922;6.256;2023-07-02T06:12:22;27.65;;;8.35;;
12467;SDS011;57850;52.922;6.256;2023-07-02T06:14:49;18.33;;;7.70;;
12467;SDS011;57850;52.922;6.256;2023-07-02T06:17:16;17.13;;;7.70;;
12467;SDS011;57850;52.922;6.256;2023-07-02T06:19:44;19.33;;;7.43;;
12467;SDS011;57850;52.922;6.256;2023-07-02T06:22:11;20.63;;;8.02;;
12467;SDS011;57850;52.922;6.256;2023-07-02T06:24:38;23.58;;;7.68;;
12467;SDS011;57850;52.922;6.256;2023-07-02T06:27:05;20.23;;;8.20;;
12467;SDS011;57850;52.922;6.256;2023-07-02T06:29:33;18.75;;;7.18;;
12467;SDS011;57850;52.922;6.256;2023-07-02T06:31:59;18.98;;;7.40;;
12467;SDS011;57850;52.922;6.256;2023-07-02T06:34:26;16.60;;;6.60;;
12467;SDS011;57850;52.922;6.256;2023-07-02T06:36:52;17.88;;;7.00;;
12467;SDS011;57850;52.922;6.256;2023-07-02T06:39:19;16.15;;;6.32;;
12467;SDS011;57850;52.922;6.256;2023-07-02T06:41:46;16.65;;;5.72;;
12467;SDS011;57850;52.922;6.256;2023-07-02T06:44:12;13.20;;;5.90;;
12467;SDS011;57850;52.922;6.256;2023-07-02T06:46:40;15.15;;;6.07;;
12467;SDS011;57850;52.922;6.256;2023-07-02T06:49:07;13.82;;;5.32;;
12467;SDS011;57850;52.922;6.256;2023-07-02T06:51:33;11.23;;;5.78;;
12467;SDS011;57850;52.922;6.256;2023-07-02T06:54:00;14.95;;;6.15;;
12467;SDS011;57850;52.922;6.256;2023-07-02T06:56:26;15.18;;;5.05;;
12467;SDS011;57850;52.922;6.256;2023-07-02T06:58:54;16.25;;;4.80;;
12467;SDS011;57850;52.922;6.256;2023-07-02T07:01:20;13.15;;;5.95;;
12467;SDS011;57850;52.922;6.256;2023-07-02T07:03:48;13.27;;;5.32;;
12467;SDS011;57850;52.922;6.256;2023-07-02T07:06:15;16.00;;;4.50;;
12467;SDS011;57850;52.922;6.256;2023-07-02T07:08:41;19.38;;;4.78;;
12467;SDS011;57850;52.922;6.256;2023-07-02T07:11:08;12.65;;;4.50;;
12467;SDS011;57850;52.922;6.256;2023-07-02T07:13:35;17.92;;;4.97;;
12467;SDS011;57850;52.922;6.256;2023-07-02T07:16:01;17.25;;;4.97;;
12467;SDS011;57850;52.922;6.256;2023-07-02T07:18:28;10.05;;;3.88;;
12467;SDS011;57850;52.922;6.256;2023-07-02T07:20:56;13.45;;;4.53;;
12467;SDS011;57850;52.922;6.256;2023-07-02T07:23:24;14.10;;;4.80;;
12467;SDS011;57850;52.922;6.256;2023-07-02T07:25:50;14.40;;;6.00;;
12467;SDS011;57850;52.922;6.256;2023-07-02T07:28:17;18.65;;;4.88;;
12467;SDS011;57850;52.922;6.256;2023-07-02T07:30:44;12.27;;;4.95;;
12467;SDS011;57850;52.922;6.256;2023-07-02T07:33:11;12.13;;;4.68;;
12467;SDS011;57850;52.922;6.256;2023-07-02T07:35:37;12.25;;;4.70;;
12467;SDS011;57850;52.922;6.256;2023-07-02T07:38:05;14.35;;;5.22;;
12467;SDS011;57850;52.922;6.256;2023-07-02T07:40:32;10.90;;;4.78;;
12467;SDS011;57850;52.922;6.256;2023-07-02T07:42:59;13.57;;;4.47;;
12467;SDS011;57850;52.922;6.256;2023-07-02T07:45:25;9.55;;;4.15;;
12467;SDS011;57850;52.922;6.256;2023-07-02T07:47:52;11.65;;;4.57;;
12467;SDS011;57850;52.922;6.256;2023-07-02T07:50:18;11.52;;;4.63;;
12467;SDS011;57850;52.922;6.256;2023-07-02T07:52:45;8.38;;;3.90;;
12467;SDS011;57850;52.922;6.256;2023-07-02T07:55:13;9.52;;;3.63;;
12467;SDS011;57850;52.922;6.256;2023-07-02T07:57:40;14.25;;;3.78;;
12467;SDS011;57850;52.922;6.256;2023-07-02T08:00:07;10.32;;;4.18;;
12467;SDS011;57850;52.922;6.256;2023-07-02T08:02:36;12.20;;;4.32;;
12467;SDS011;57850;52.922;6.256;2023-07-02T08:05:03;12.13;;;3.92;;
12467;SDS011;57850;52.922;6.256;2023-07-02T08:07:30;12.05;;;4.07;;
12467;SDS011;57850;52.922;6.256;2023-07-02T08:09:57;10.55;;;4.38;;
12467;SDS011;57850;52.922;6.256;2023-07-02T08:12:29;9.88;;;4.55;;
12467;SDS011;57850;52.922;6.256;2023-07-02T08:14:55;18.27;;;5.78;;
12467;SDS011;57850;52.922;6.256;2023-07-02T08:17:22;15.27;;;5.38;;
12467;SDS011;57850;52.922;6.256;2023-07-02T08:19:48;13.95;;;5.43;;
12467;SDS011;57850;52.922;6.256;2023-07-02T08:22:15;12.10;;;4.80;;
12467;SDS011;57850;52.922;6.256;2023-07-02T08:24:42;13.07;;;4.55;;
12467;SDS011;57850;52.922;6.256;2023-07-02T08:27:08;13.13;;;4.53;;
12467;SDS011;57850;52.922;6.256;2023-07-02T08:29:37;9.90;;;4.47;;
12467;SDS011;57850;52.922;6.256;2023-07-02T08:32:03;8.07;;;3.80;;
12467;SDS011;57850;52.922;6.256;2023-07-02T08:34:30;10.50;;;4.55;;
12467;SDS011;57850;52.922;6.256;2023-07-02T08:36:56;10.55;;;4.50;;
12467;SDS011;57850;52.922;6.256;2023-07-02T08:39:24;11.50;;;4.55;;
12467;SDS011;57850;52.922;6.256;2023-07-02T08:41:51;14.27;;;4.70;;
12467;SDS011;57850;52.922;6.256;2023-07-02T08:44:19;18.45;;;5.40;;
12467;SDS011;57850;52.922;6.256;2023-07-02T08:46:48;13.27;;;4.55;;
12467;SDS011;57850;52.922;6.256;2023-07-02T08:49:18;18.00;;;5.07;;
12467;SDS011;57850;52.922;6.256;2023-07-02T08:51:45;21.27;;;5.13;;
12467;SDS011;57850;52.922;6.256;2023-07-02T08:54:12;12.88;;;4.80;;
12467;SDS011;57850;52.922;6.256;2023-07-02T08:56:40;13.35;;;5.50;;
12467;SDS011;57850;52.922;6.256;2023-07-02T08:59:07;12.98;;;5.10;;
12467;SDS011;57850;52.922;6.256;2023-07-02T09:01:44;8.40;;;4.80;;
12467;SDS011;57850;52.922;6.256;2023-07-02T09:04:15;10.15;;;5.32;;
12467;SDS011;57850;52.922;6.256;2023-07-02T09:06:46;12.90;;;5.40;;
12467;SDS011;57850;52.922;6.256;2023-07-02T09:09:13;14.05;;;5.18;;
12467;SDS011;57850;52.922;6.256;2023-07-02T09:11:46;12.05;;;5.30;;
12467;SDS011;57850;52.922;6.256;2023-07-02T09:14:23;15.10;;;5.03;;
12467;SDS011;57850;52.922;6.256;2023-07-02T09:17:00;11.93;;;4.55;;
12467;SDS011;57850;52.922;6.256;2023-07-02T09:19:30;14.23;;;4.80;;
12467;SDS011;57850;52.922;6.256;2023-07-02T09:21:57;13.63;;;4.60;;
12467;SDS011;57850;52.922;6.256;2023-07-02T09:24:26;14.10;;;4.35;;
12467;SDS011;57850;52.922;6.256;2023-07-02T09:26:54;14.00;;;4.28;;
12467;SDS011;57850;52.922;6.256;2023-07-02T09:29:22;11.18;;;4.95;;
12467;SDS011;57850;52.922;6.256;2023-07-02T09:31:49;13.13;;;4.15;;
12467;SDS011;57850;52.922;6.256;2023-07-02T09:34:17;12.13;;;3.67;;
12467;SDS011;57850;52.922;6.256;2023-07-02T09:36:46;13.40;;;4.13;;
12467;SDS011;57850;52.922;6.256;2023-07-02T09:39:13;9.38;;;4.45;;
12467;SDS011;57850;52.922;6.256;2023-07-02T09:41:40;11.43;;;4.28;;
12467;SDS011;57850;52.922;6.256;2023-07-02T09:44:08;14.13;;;4.88;;
12467;SDS011;57850;52.922;6.256;2023-07-02T09:46:36;13.35;;;5.07;;
12467;SDS011;57850;52.922;6.256;2023-07-02T09:49:08;14.10;;;4.45;;
12467;SDS011;57850;52.922;6.256;2023-07-02T09:51:40;13.70;;;5.13;;
12467;SDS011;57850;52.922;6.256;2023-07-02T09:54:08;11.15;;;4.93;;
12467;SDS011;57850;52.922;6.256;2023-07-02T09:56:36;13.00;;;5.18;;
12467;SDS011;57850;52.922;6.256;2023-07-02T09:59:03;11.32;;;3.92;;
12467;SDS011;57850;52.922;6.256;2023-07-02T10:01:29;14.55;;;4.75;;
12467;SDS011;57850;52.922;6.256;2023-07-02T10:03:56;14.68;;;4.70;;
12467;SDS011;57850;52.922;6.256;2023-07-02T10:06:22;8.65;;;4.38;;
12467;SDS011;57850;52.922;6.256;2023-07-02T10:08:52;10.80;;;4.65;;
12467;SDS011;57850;52.922;6.256;2023-07-02T10:11:21;11.50;;;4.93;;
12467;SDS011;57850;52.922;6.256;2023-07-02T10:13:59;13.82;;;4.40;;
12467;SDS011;57850;52.922;6.256;2023-07-02T10:16:26;15.18;;;4.72;;
12467;SDS011;57850;52.922;6.256;2023-07-02T10:19:07;11.52;;;4.30;;
12467;SDS011;57850;52.922;6.256;2023-07-02T10:21:34;12.57;;;4.20;;
12467;SDS011;57850;52.922;6.256;2023-07-02T10:24:08;14.20;;;4.13;;
12467;SDS011;57850;52.922;6.256;2023-07-02T10:26:37;11.00;;;3.92;;
12467;SDS011;57850;52.922;6.256;2023-07-02T10:29:06;10.82;;;3.88;;
12467;SDS011;57850;52.922;6.256;2023-07-02T10:31:32;8.10;;;4.45;;
12467;SDS011;57850;52.922;6.256;2023-07-02T10:33:59;14.05;;;4.43;;
12467;SDS011;57850;52.922;6.256;2023-07-02T10:36:26;9.15;;;3.97;;
12467;SDS011;57850;52.922;6.256;2023-07-02T10:38:52;10.40;;;3.97;;
12467;SDS011;57850;52.922;6.256;2023-07-02T10:41:22;12.98;;;4.07;;
12467;SDS011;57850;52.922;6.256;2023-07-02T10:43:52;12.43;;;4.75;;
12467;SDS011;57850;52.922;6.256;2023-07-02T10:46:19;8.77;;;4.18;;
12467;SDS011;57850;52.922;6.256;2023-07-02T10:48:52;10.65;;;4.07;;
12467;SDS011;57850;52.922;6.256;2023-07-02T10:51:19;12.45;;;4.22;;
12467;SDS011;57850;52.922;6.256;2023-07-02T10:53:55;10.38;;;4.15;;
12467;SDS011;57850;52.922;6.256;2023-07-02T10:56:24;14.35;;;4.20;;
12467;SDS011;57850;52.922;6.256;2023-07-02T10:58:52;13.27;;;4.47;;
12467;SDS011;57850;52.922;6.256;2023-07-02T11:01:23;10.00;;;3.95;;
12467;SDS011;57850;52.922;6.256;2023-07-02T11:03:55;11.75;;;4.45;;
12467;SDS011;57850;52.922;6.256;2023-07-02T11:06:24;9.13;;;3.92;;
12467;SDS011;57850;52.922;6.256;2023-07-02T11:08:51;12.43;;;4.53;;
12467;SDS011;57850;52.922;6.256;2023-07-02T11:11:19;10.68;;;4.22;;
12467;SDS011;57850;52.922;6.256;2023-07-02T11:13:47;18.80;;;5.28;;
12467;SDS011;57850;52.922;6.256;2023-07-02T11:16:23;10.05;;;4.20;;
12467;SDS011;57850;52.922;6.256;2023-07-02T11:18:52;11.77;;;3.88;;
12467;SDS011;57850;52.922;6.256;2023-07-02T11:21:19;8.95;;;3.58;;
12467;SDS011;57850;52.922;6.256;2023-07-02T11:23:46;7.65;;;3.60;;
12467;SDS011;57850;52.922;6.256;2023-07-02T11:26:12;9.82;;;3.85;;
12467;SDS011;57850;52.922;6.256;2023-07-02T11:28:47;11.95;;;3.65;;
12467;SDS011;57850;52.922;6.256;2023-07-02T11:31:25;9.80;;;4.20;;
12467;SDS011;57850;52.922;6.256;2023-07-02T11:33:52;8.65;;;3.50;;
12467;SDS011;57850;52.922;6.256;2023-07-02T11:36:19;10.95;;;3.60;;
12467;SDS011;57850;52.922;6.256;2023-07-02T11:38:48;10.13;;;3.80;;
12467;SDS011;57850;52.922;6.256;2023-07-02T11:41:15;10.27;;;3.55;;
12467;SDS011;57850;52.922;6.256;2023-07-02T11:43:42;8.68;;;3.58;;
12467;SDS011;57850;52.922;6.256;2023-07-02T11:46:08;11.27;;;3.70;;
12467;SDS011;57850;52.922;6.256;2023-07-02T11:48:36;13.70;;;4.47;;
12467;SDS011;57850;52.922;6.256;2023-07-02T11:51:03;7.40;;;3.70;;
12467;SDS011;57850;52.922;6.256;2023-07-02T11:53:29;10.95;;;4.53;;
12467;SDS011;57850;52.922;6.256;2023-07-02T11:55:56;8.07;;;3.60;;
12467;SDS011;57850;52.922;6.256;2023-07-02T11:58:23;13.85;;;4.00;;
12467;SDS011;57850;52.922;6.256;2023-07-02T12:00:49;9.18;;;3.60;;
12467;SDS011;57850;52.922;6.256;2023-07-02T12:03:16;8.05;;;3.25;;
12467;SDS011;57850;52.922;6.256;2023-07-02T12:05:44;9.32;;;3.50;;
12467;SDS011;57850;52.922;6.256;2023-07-02T12:08:10;7.05;;;3.38;;
12467;SDS011;57850;52.922;6.256;2023-07-02T12:10:37;9.02;;;3.53;;
12467;SDS011;57850;52.922;6.256;2023-07-02T12:13:03;6.65;;;3.22;;
12467;SDS011;57850;52.922;6.256;2023-07-02T12:15:30;6.65;;;2.95;;
12467;SDS011;57850;52.922;6.256;2023-07-02T12:17:56;8.13;;;3.10;;
12467;SDS011;57850;52.922;6.256;2023-07-02T12:20:24;7.35;;;3.20;;
12467;SDS011;57850;52.922;6.256;2023-07-02T12:22:52;8.18;;;3.03;;
12467;SDS011;57850;52.922;6.256;2023-07-02T12:25:18;11.52;;;3.47;;
12467;SDS011;57850;52.922;6.256;2023-07-02T12:27:45;11.82;;;3.65;;
12467;SDS011;57850;52.922;6.256;2023-07-02T12:30:13;11.93;;;4.03;;
12467;SDS011;57850;52.922;6.256;2023-07-02T12:32:42;9.27;;;4.03;;
12467;SDS011;57850;52.922;6.256;2023-07-02T12:35:09;13.20;;;3.88;;
12467;SDS011;57850;52.922;6.256;2023-07-02T12:37:42;9.02;;;4.00;;
12467;SDS011;57850;52.922;6.256;2023-07-02T12:40:11;8.05;;;3.85;;
12467;SDS011;57850;52.922;6.256;2023-07-02T12:42:37;13.38;;;4.55;;
12467;SDS011;57850;52.922;6.256;2023-07-02T12:45:05;12.15;;;4.32;;
12467;SDS011;57850;52.922;6.256;2023-07-02T12:47:32;11.63;;;4.82;;
12467;SDS011;57850;52.922;6.256;2023-07-02T12:49:59;11.25;;;4.63;;
12467;SDS011;57850;52.922;6.256;2023-07-02T12:52:25;11.05;;;4.68;;
12467;SDS011;57850;52.922;6.256;2023-07-02T12:54:52;10.93;;;4.18;;
12467;SDS011;57850;52.922;6.256;2023-07-02T12:57:20;10.70;;;4.65;;
12467;SDS011;57850;52.922;6.256;2023-07-02T12:59:46;12.43;;;5.22;;
12467;SDS011;57850;52.922;6.256;2023-07-02T13:02:13;12.43;;;5.53;;
12467;SDS011;57850;52.922;6.256;2023-07-02T13:04:40;8.55;;;5.13;;
12467;SDS011;57850;52.922;6.256;2023-07-02T13:07:06;16.55;;;5.65;;
12467;SDS011;57850;52.922;6.256;2023-07-02T13:09:33;10.38;;;4.88;;
12467;SDS011;57850;52.922;6.256;2023-07-02T13:11:59;8.85;;;4.75;;
12467;SDS011;57850;52.922;6.256;2023-07-02T13:14:27;11.85;;;4.90;;
12467;SDS011;57850;52.922;6.256;2023-07-02T13:16:54;11.18;;;4.90;;
12467;SDS011;57850;52.922;6.256;2023-07-02T13:19:20;11.80;;;5.05;;
12467;SDS011;57850;52.922;6.256;2023-07-02T13:21:47;11.07;;;4.68;;
12467;SDS011;57850;52.922;6.256;2023-07-02T13:24:14;12.18;;;5.20;;
12467;SDS011;57850;52.922;6.256;2023-07-02T13:26:40;12.18;;;5.30;;
12467;SDS011;57850;52.922;6.256;2023-07-02T13:29:07;10.82;;;5.07;;
12467;SDS011;57850;52.922;6.256;2023-07-02T13:31:35;11.13;;;4.90;;
12467;SDS011;57850;52.922;6.256;2023-07-02T13:34:02;10.13;;;5.32;;
12467;SDS011;57850;52.922;6.256;2023-07-02T13:36:29;12.20;;;4.88;;
12467;SDS011;57850;52.922;6.256;2023-07-02T13:38:56;12.73;;;5.40;;
12467;SDS011;57850;52.922;6.256;2023-07-02T13:41:22;8.68;;;4.72;;
12467;SDS011;57850;52.922;6.256;2023-07-02T13:43:49;15.15;;;5.22;;
12467;SDS011;57850;52.922;6.256;2023-07-02T13:46:16;11.68;;;5.32;;
12467;SDS011;57850;52.922;6.256;2023-07-02T13:48:44;11.50;;;5.22;;
12467;SDS011;57850;52.922;6.256;2023-07-02T13:51:10;11.73;;;5.30;;
12467;SDS011;57850;52.922;6.256;2023-07-02T13:53:37;10.23;;;5.00;;
12467;SDS011;57850;52.922;6.256;2023-07-02T13:56:03;13.55;;;5.28;;
12467;SDS011;57850;52.922;6.256;2023-07-02T14:01:12;10.23;;;5.45;;
12467;SDS011;57850;52.922;6.256;2023-07-02T14:03:39;9.38;;;5.15;;
12467;SDS011;57850;52.922;6.256;2023-07-02T14:06:05;9.52;;;5.28;;
12467;SDS011;57850;52.922;6.256;2023-07-02T14:08:32;7.80;;;4.78;;
12467;SDS011;57850;52.922;6.256;2023-07-02T14:10:59;9.65;;;4.90;;
12467;SDS011;57850;52.922;6.256;2023-07-02T14:13:25;12.10;;;5.13;;
12467;SDS011;57850;52.922;6.256;2023-07-02T14:15:52;12.10;;;4.93;;
12467;SDS011;57850;52.922;6.256;2023-07-02T14:18:20;11.45;;;5.05;;
12467;SDS011;57850;52.922;6.256;2023-07-02T14:20:47;14.02;;;5.47;;
12467;SDS011;57850;52.922;6.256;2023-07-02T14:23:13;7.80;;;4.65;;
12467;SDS011;57850;52.922;6.256;2023-07-02T14:25:40;11.95;;;5.25;;
12467;SDS011;57850;52.922;6.256;2023-07-02T14:28:06;11.63;;;5.22;;
12467;SDS011;57850;52.922;6.256;2023-07-02T14:30:33;11.55;;;5.13;;
12467;SDS011;57850;52.922;6.256;2023-07-02T14:33:00;13.00;;;4.95;;
12467;SDS011;57850;52.922;6.256;2023-07-02T14:35:28;7.65;;;4.57;;
12467;SDS011;57850;52.922;6.256;2023-07-02T14:37:56;7.85;;;5.15;;
12467;SDS011;57850;52.922;6.256;2023-07-02T14:40:24;7.05;;;4.40;;